createdAt,value
2022-11-28T00:02:50.661Z,95622.88
2022-11-28T00:07:52.123Z,95619.00
2022-11-28T00:12:53.620Z,95607.41
2022-11-28T00:17:55.014Z,95612.09
2022-11-28T00:22:56.480Z,95616.41
2022-11-28T00:27:57.908Z,95609.75
2022-11-28T00:32:59.376Z,95603.03
2022-11-28T00:38:00.840Z,95602.63
2022-11-28T00:43:02.314Z,95592.06
2022-11-28T00:48:03.966Z,95597.28
2022-11-28T00:53:05.372Z,95601.78
2022-11-28T00:58:06.839Z,95603.88
2022-11-28T01:03:08.259Z,95598.44
2022-11-28T01:08:10.513Z,95594.22
2022-11-28T01:13:12.092Z,95585.22
2022-11-28T01:18:13.574Z,95582.19
2022-11-28T01:23:16.733Z,95584.47
2022-11-28T01:28:18.183Z,95579.78
2022-11-28T01:33:19.612Z,95573.81
2022-11-28T01:38:21.103Z,95575.28
2022-11-28T01:43:23.942Z,95570.78
2022-11-28T01:48:43.710Z,95569.88
2022-11-28T01:53:47.279Z,95561.84
2022-11-28T01:58:56.439Z,95551.41
2022-11-28T02:03:58.761Z,95554.88
2022-11-28T02:09:00.232Z,95565.44
2022-11-28T02:14:30.930Z,95561.47
2022-11-28T02:19:53.344Z,95562.84
2022-11-28T02:25:09.516Z,95559.16
2022-11-28T02:30:48.382Z,95556.63
2022-11-28T02:35:59.248Z,95551.13
2022-11-28T02:41:06.535Z,95549.31
2022-11-28T02:46:25.221Z,95551.41
2022-11-28T02:51:48.086Z,95544.31
2022-11-28T02:56:54.291Z,95542.63
2022-11-28T03:01:55.897Z,95529.88
2022-11-28T03:07:35.987Z,95542.31
2022-11-28T03:12:58.464Z,95537.91
2022-11-28T03:18:06.124Z,95530.72
2022-11-28T03:23:16.292Z,95521.50
2022-11-28T03:28:38.186Z,95524.03
2022-11-28T03:33:51.766Z,95514.09
2022-11-28T03:39:06.417Z,95510.44
2022-11-28T03:44:15.134Z,95503.03
2022-11-28T03:49:22.259Z,95492.25
2022-11-28T03:54:40.262Z,95485.53
2022-11-28T03:59:46.597Z,95494.09
2022-11-28T04:04:53.404Z,95491.19
2022-11-28T04:10:16.585Z,95481.81
2022-11-28T04:15:26.902Z,95487.94
2022-11-28T04:20:51.663Z,95471.75
2022-11-28T04:26:13.517Z,95474.47
2022-11-28T04:31:17.928Z,95472.56
2022-11-28T04:36:22.785Z,95456.66
2022-11-28T04:41:34.895Z,95462.31
2022-11-28T04:46:44.760Z,95453.75
2022-11-28T04:51:50.462Z,95451.88
2022-11-28T04:57:03.879Z,95458.13
2022-11-28T05:02:06.380Z,95448.94
2022-11-28T05:07:08.406Z,95447.69
2022-11-28T05:12:09.817Z,95444.91
2022-11-28T05:17:12.903Z,95438.63
2022-11-28T05:22:14.488Z,95443.72
2022-11-28T05:27:16.459Z,95445.94
2022-11-28T05:32:17.912Z,95449.59
2022-11-28T05:37:20.440Z,95448.44
2022-11-28T05:42:21.908Z,95445.84
2022-11-28T05:47:23.365Z,95450.94
2022-11-28T05:52:24.911Z,95449.09
2022-11-28T05:57:26.402Z,95464.31
2022-11-28T06:02:27.932Z,95462.38
2022-11-28T06:07:29.459Z,95457.44
2022-11-28T06:12:30.974Z,95458.38
2022-11-28T06:17:32.409Z,95465.28
2022-11-28T06:22:33.931Z,95466.53
2022-11-28T06:27:35.408Z,95450.41
2022-11-28T06:32:36.849Z,95448.94
2022-11-28T06:37:38.333Z,95435.84
2022-11-28T06:42:39.760Z,95448.09
2022-11-28T06:47:41.216Z,95467.09
2022-11-28T06:52:42.596Z,95477.47
2022-11-28T06:57:43.987Z,95471.97
2022-11-28T07:02:45.493Z,95469.06
2022-11-28T07:07:54.265Z,95470.63
2022-11-28T07:13:05.138Z,95484.94
2022-11-28T07:18:07.029Z,95478.69
2022-11-28T07:23:08.421Z,95484.94
2022-11-28T07:28:09.998Z,95487.97
2022-11-28T07:33:11.490Z,95487.56
2022-11-28T07:38:12.945Z,95481.16
2022-11-28T07:43:14.421Z,95473.56
2022-11-28T07:48:15.906Z,95484.00
2022-11-28T07:53:17.341Z,95472.16
2022-11-28T07:58:18.723Z,95474.78
2022-11-28T08:03:20.175Z,95470.19
2022-11-28T08:08:23.413Z,95478.03
2022-11-28T08:13:25.011Z,95474.47
2022-11-28T08:18:26.442Z,95479.09
2022-11-28T08:23:27.902Z,95485.75
2022-11-28T08:28:29.719Z,95484.28
2022-11-28T08:33:31.310Z,95476.13
2022-11-28T08:38:32.844Z,95460.19
2022-11-28T08:43:35.108Z,95468.25
2022-11-28T08:48:37.811Z,95469.16
2022-11-28T08:53:39.275Z,95467.16
2022-11-28T08:58:40.818Z,95473.84
2022-11-28T09:03:42.301Z,95479.81
2022-11-28T09:08:44.223Z,95476.00
2022-11-28T09:13:46.437Z,95473.22
2022-11-28T09:18:48.006Z,95473.94
2022-11-28T09:23:49.483Z,95467.56
2022-11-28T09:28:51.479Z,95470.97
2022-11-28T09:33:53.812Z,95461.47
2022-11-28T09:38:55.292Z,95457.19
2022-11-28T09:44:02.996Z,95464.34
2022-11-28T09:49:17.886Z,95462.06
2022-11-28T09:54:22.344Z,95455.19
2022-11-28T09:59:29.664Z,95446.97
2022-11-28T10:04:44.026Z,95452.72
2022-11-28T10:10:09.669Z,95441.38
2022-11-28T10:15:25.449Z,95438.16
2022-11-28T10:20:30.751Z,95442.72
2022-11-28T10:25:40.530Z,95439.59
2022-11-28T10:30:48.200Z,95435.66
2022-11-28T10:35:58.483Z,95436.25
2022-11-28T10:41:02.811Z,95430.03
2022-11-28T10:46:17.911Z,95421.44
2022-11-28T10:51:41.102Z,95422.50
2022-11-28T10:56:51.621Z,95417.34
2022-11-28T11:01:53.480Z,95418.66
2022-11-28T11:07:10.123Z,95406.63
2022-11-28T11:12:30.142Z,95400.16
2022-11-28T11:17:36.729Z,95394.53
2022-11-28T11:22:38.300Z,95390.44
2022-11-28T11:27:51.888Z,95392.00
2022-11-28T11:32:55.534Z,95375.53
2022-11-28T11:38:18.233Z,95373.63
2022-11-28T11:43:33.732Z,95364.81
2022-11-28T11:48:43.681Z,95368.25
2022-11-28T11:53:45.211Z,95364.78
2022-11-28T11:58:51.835Z,95359.28
2022-11-28T12:03:58.264Z,95350.72
2022-11-28T12:09:23.168Z,95348.19
2022-11-28T12:14:27.556Z,95343.25
2022-11-28T12:20:01.416Z,95350.97
2022-11-28T12:25:13.806Z,95346.09
2022-11-28T12:30:24.415Z,95346.84
2022-11-28T12:35:38.715Z,95344.81
2022-11-28T12:40:56.546Z,95332.66
2022-11-28T12:46:30.321Z,95330.84
2022-11-28T12:52:06.861Z,95331.00
2022-11-28T12:57:19.844Z,95321.34
2022-11-28T13:02:45.688Z,95323.41
2022-11-28T13:08:11.834Z,95315.91
2022-11-28T13:13:16.194Z,95310.66
2022-11-28T13:18:38.369Z,95307.63
2022-11-28T13:24:06.660Z,95312.31
2022-11-28T13:29:40.867Z,95313.41
2022-11-28T13:34:43.049Z,95311.91
2022-11-28T13:39:44.415Z,95318.56
2022-11-28T13:44:52.939Z,95308.47
2022-11-28T13:50:22.423Z,95319.00
2022-11-28T13:55:38.796Z,95319.97
2022-11-28T14:00:40.564Z,95319.69
2022-11-28T14:05:42.155Z,95317.19
2022-11-28T14:11:13.835Z,95319.00
2022-11-28T14:16:32.537Z,95319.41
2022-11-28T14:21:52.756Z,95314.13
2022-11-28T14:26:59.769Z,95302.09
2022-11-28T14:32:28.314Z,95313.84
2022-11-28T14:37:29.178Z,95316.72
2022-11-28T14:42:58.818Z,95324.19
2022-11-28T14:48:30.866Z,95325.97
2022-11-28T14:53:37.699Z,95322.59
2022-11-28T14:58:39.716Z,95328.06
2022-11-28T15:03:48.840Z,95328.06
2022-11-28T15:09:05.831Z,95324.63
2022-11-28T15:14:22.209Z,95322.81
2022-11-28T15:19:34.530Z,95325.84
2022-11-28T15:24:38.028Z,95328.63
2022-11-28T15:29:40.566Z,95330.41
2022-11-28T15:34:43.443Z,95330.53
2022-11-28T15:39:49.406Z,95331.72
2022-11-28T15:44:56.818Z,95330.59
2022-11-28T15:50:00.860Z,95331.47
2022-11-28T15:55:02.332Z,95328.03
2022-11-28T16:00:04.266Z,95331.88
2022-11-28T16:05:18.907Z,95337.13
2022-11-28T16:10:22.900Z,95332.78
2022-11-28T16:15:26.167Z,95337.03
2022-11-28T16:20:33.790Z,95332.97
2022-11-28T16:25:35.501Z,95341.25
2022-11-28T16:30:42.131Z,95347.44
2022-11-28T16:35:43.556Z,95347.00
2022-11-28T16:40:45.163Z,95349.88
2022-11-28T16:45:46.678Z,95346.56
2022-11-28T16:51:11.469Z,95356.19
2022-11-28T16:56:36.270Z,95358.25
2022-11-28T17:01:38.857Z,95360.38
2022-11-28T17:06:40.338Z,95355.56
2022-11-28T17:11:46.444Z,95356.53
2022-11-28T17:16:48.019Z,95349.72
2022-11-28T17:21:56.475Z,95369.06
2022-11-28T17:26:58.029Z,95363.69
2022-11-28T17:32:00.115Z,95357.59
2022-11-28T17:37:02.879Z,95360.97
2022-11-28T17:42:05.369Z,95365.09
2022-11-28T17:47:06.842Z,95365.00
2022-11-28T17:52:09.366Z,95366.81
2022-11-28T17:57:11.196Z,95358.50
2022-11-28T18:02:13.082Z,95366.88
2022-11-28T18:07:15.580Z,95366.75
2022-11-28T18:12:17.084Z,95368.41
2022-11-28T18:17:18.554Z,95360.78
2022-11-28T18:22:20.336Z,95359.34
2022-11-28T18:27:22.453Z,95364.44
2022-11-28T18:32:23.854Z,95371.03
2022-11-28T18:37:25.445Z,95364.25
2022-11-28T18:42:26.966Z,95367.72
2022-11-28T18:47:28.461Z,95366.16
2022-11-28T18:52:30.000Z,95367.25
2022-11-28T18:57:31.716Z,95363.78
2022-11-28T19:02:33.655Z,95362.97
2022-11-28T19:07:35.275Z,95373.00
2022-11-28T19:12:38.596Z,95366.06
2022-11-28T19:17:40.756Z,95376.84
2022-11-28T19:22:42.590Z,95370.56
2022-11-28T19:27:44.177Z,95370.78
2022-11-28T19:32:45.619Z,95371.13
2022-11-28T19:37:47.159Z,95378.41
2022-11-28T19:42:48.695Z,95383.66
2022-11-28T19:47:50.726Z,95380.06
2022-11-28T19:52:52.256Z,95388.06
2022-11-28T19:57:53.799Z,95392.34
2022-11-28T20:02:55.635Z,95395.94
2022-11-28T20:07:58.772Z,95400.91
2022-11-28T20:13:00.452Z,95409.38
2022-11-28T20:18:03.163Z,95404.03
2022-11-28T20:23:04.626Z,95402.34
2022-11-28T20:28:06.907Z,95417.50
2022-11-28T20:33:08.443Z,95418.09
2022-11-28T20:38:09.862Z,95418.81
2022-11-28T20:43:11.280Z,95423.91
2022-11-28T20:48:12.705Z,95425.34
2022-11-28T20:53:14.113Z,95422.38
2022-11-28T20:58:15.629Z,95419.47
2022-11-28T21:03:17.132Z,95422.44
2022-11-28T21:08:18.674Z,95427.44
2022-11-28T21:13:20.137Z,95422.25
2022-11-28T21:18:21.555Z,95423.13
2022-11-28T21:23:23.014Z,95418.91
2022-11-28T21:28:24.415Z,95421.03
2022-11-28T21:33:25.888Z,95421.75
2022-11-28T21:38:27.371Z,95419.38
2022-11-28T21:43:29.170Z,95416.03
2022-11-28T21:48:31.863Z,95423.78
2022-11-28T21:53:34.161Z,95423.50
2022-11-28T21:58:35.695Z,95423.50
2022-11-28T22:03:38.425Z,95421.84
2022-11-28T22:08:40.404Z,95422.00
2022-11-28T22:13:42.979Z,95435.34
2022-11-28T22:18:44.956Z,95433.25
2022-11-28T22:23:46.626Z,95439.44
2022-11-28T22:28:53.611Z,95443.03
2022-11-28T22:33:57.575Z,95439.56
2022-11-28T22:38:59.137Z,95440.31
2022-11-28T22:44:02.273Z,95442.38
2022-11-28T22:49:05.211Z,95445.00
2022-11-28T22:54:06.986Z,95446.88
2022-11-28T22:59:13.787Z,95440.44
2022-11-28T23:04:15.896Z,95446.84
2022-11-28T23:09:17.386Z,95455.47
2022-11-28T23:14:19.439Z,95451.03
2022-11-28T23:19:22.444Z,95448.03
2022-11-28T23:24:24.147Z,95457.47
2022-11-28T23:29:26.742Z,95455.44
2022-11-28T23:34:28.320Z,95455.31
2022-11-28T23:39:29.743Z,95461.41
2022-11-28T23:44:38.323Z,95445.94
2022-11-28T23:49:39.800Z,95447.25
2022-11-28T23:54:41.657Z,95453.75
2022-11-28T23:59:43.337Z,95443.25
